sensor_id;sensor_type;location;lat;lon;timestamp;pressure;altitude;pressure_sealevel;temperature;humidity
77881;BME280;67077;50.298;18.996;2024-02-23T00:02:08;95992.21;;;8.37;100.00
77881;BME280;67077;50.298;18.996;2024-02-23T00:04:36;95986.50;;;8.36;100.00
77881;BME280;67077;50.298;18.996;2024-02-23T00:07:04;95989.19;;;8.36;100.00
77881;BME280;67077;50.298;18.996;2024-02-23T00:09:32;95985.09;;;8.36;100.00
77881;BME280;67077;50.298;18.996;2024-02-23T00:12:03;95985.85;;;8.36;100.00
77881;BME280;67077;50.298;18.996;2024-02-23T00:14:31;95987.14;;;8.37;100.00
77881;BME280;67077;50.298;18.996;2024-02-23T00:17:00;95988.11;;;8.37;100.00
77881;BME280;67077;50.298;18.996;2024-02-23T00:19:31;95988.61;;;8.39;100.00
77881;BME280;67077;50.298;18.996;2024-02-23T00:22:02;95985.06;;;8.39;100.00
77881;BME280;67077;50.298;18.996;2024-02-23T00:24:29;95985.45;;;8.40;100.00
77881;BME280;67077;50.298;18.996;2024-02-23T00:26:57;95985.67;;;8.42;100.00
77881;BME280;67077;50.298;18.996;2024-02-23T00:29:25;95979.48;;;8.42;100.00
77881;BME280;67077;50.298;18.996;2024-02-23T00:31:53;95975.30;;;8.43;100.00
77881;BME280;67077;50.298;18.996;2024-02-23T00:34:21;95976.01;;;8.43;100.00
77881;BME280;67077;50.298;18.996;2024-02-23T00:36:50;95976.09;;;8.42;100.00
77881;BME280;67077;50.298;18.996;2024-02-23T00:39:18;95974.09;;;8.41;100.00
77881;BME280;67077;50.298;18.996;2024-02-23T00:41:45;95976.18;;;8.40;100.00
77881;BME280;67077;50.298;18.996;2024-02-23T00:44:13;95969.07;;;8.40;100.00
77881;BME280;67077;50.298;18.996;2024-02-23T00:46:41;95970.09;;;8.39;100.00
77881;BME280;67077;50.298;18.996;2024-02-23T00:49:09;95971.44;;;8.38;100.00
77881;BME280;67077;50.298;18.996;2024-02-23T00:51:37;95972.45;;;8.37;100.00
77881;BME280;67077;50.298;18.996;2024-02-23T00:54:04;95972.18;;;8.37;100.00
77881;BME280;67077;50.298;18.996;2024-02-23T00:56:32;95973.79;;;8.36;100.00
77881;BME280;67077;50.298;18.996;2024-02-23T00:59:00;95979.11;;;8.35;100.00
77881;BME280;67077;50.298;18.996;2024-02-23T01:01:28;95978.46;;;8.34;100.00
77881;BME280;67077;50.298;18.996;2024-02-23T01:03:56;95976.44;;;8.33;100.00
77881;BME280;67077;50.298;18.996;2024-02-23T01:06:24;95971.85;;;8.32;100.00
77881;BME280;67077;50.298;18.996;2024-02-23T01:08:52;95974.59;;;8.31;100.00
77881;BME280;67077;50.298;18.996;2024-02-23T01:11:21;95974.64;;;8.31;100.00
77881;BME280;67077;50.298;18.996;2024-02-23T01:13:49;95980.83;;;8.31;100.00
77881;BME280;67077;50.298;18.996;2024-02-23T01:16:17;95987.08;;;8.31;100.00
77881;BME280;67077;50.298;18.996;2024-02-23T01:18:44;95994.28;;;8.30;100.00
77881;BME280;67077;50.298;18.996;2024-02-23T01:21:13;95994.02;;;8.31;100.00
77881;BME280;67077;50.298;18.996;2024-02-23T01:23:41;95993.76;;;8.31;100.00
77881;BME280;67077;50.298;18.996;2024-02-23T01:26:09;95992.52;;;8.31;100.00
77881;BME280;67077;50.298;18.996;2024-02-23T01:28:36;95993.42;;;8.31;100.00
77881;BME280;67077;50.298;18.996;2024-02-23T01:31:04;95989.18;;;8.32;100.00
77881;BME280;67077;50.298;18.996;2024-02-23T01:33:35;95993.16;;;8.32;100.00
77881;BME280;67077;50.298;18.996;2024-02-23T01:36:05;95985.04;;;8.32;100.00
77881;BME280;67077;50.298;18.996;2024-02-23T01:38:33;95986.77;;;8.32;100.00
77881;BME280;67077;50.298;18.996;2024-02-23T01:41:01;95987.20;;;8.33;100.00
77881;BME280;67077;50.298;18.996;2024-02-23T01:43:30;95982.85;;;8.33;100.00
77881;BME280;67077;50.298;18.996;2024-02-23T01:45:57;95984.31;;;8.33;100.00
77881;BME280;67077;50.298;18.996;2024-02-23T01:48:26;95985.23;;;8.34;100.00
77881;BME280;67077;50.298;18.996;2024-02-23T01:50:54;95987.14;;;8.35;100.00
77881;BME280;67077;50.298;18.996;2024-02-23T01:53:24;95980.55;;;8.34;100.00
77881;BME280;67077;50.298;18.996;2024-02-23T01:55:54;95969.48;;;8.33;100.00
77881;BME280;67077;50.298;18.996;2024-02-23T01:58:22;95964.91;;;8.32;100.00
77881;BME280;67077;50.298;18.996;2024-02-23T02:00:50;95963.39;;;8.30;100.00
77881;BME280;67077;50.298;18.996;2024-02-23T02:03:17;95963.04;;;8.27;100.00
77881;BME280;67077;50.298;18.996;2024-02-23T02:05:45;95966.60;;;8.24;100.00
77881;BME280;67077;50.298;18.996;2024-02-23T02:08:13;95966.64;;;8.22;100.00
77881;BME280;67077;50.298;18.996;2024-02-23T02:10:41;95961.02;;;8.19;100.00
77881;BME280;67077;50.298;18.996;2024-02-23T02:13:10;95960.69;;;8.18;100.00
77881;BME280;67077;50.298;18.996;2024-02-23T02:15:38;95959.23;;;8.17;100.00
77881;BME280;67077;50.298;18.996;2024-02-23T02:18:06;95954.16;;;8.16;100.00
77881;BME280;67077;50.298;18.996;2024-02-23T02:20:36;95963.48;;;8.16;100.00
77881;BME280;67077;50.298;18.996;2024-02-23T02:23:04;95966.70;;;8.16;100.00
77881;BME280;67077;50.298;18.996;2024-02-23T02:25:34;95959.93;;;8.16;100.00
77881;BME280;67077;50.298;18.996;2024-02-23T02:28:06;95961.38;;;8.17;100.00
77881;BME280;67077;50.298;18.996;2024-02-23T02:30:34;95962.79;;;8.17;100.00
77881;BME280;67077;50.298;18.996;2024-02-23T02:33:02;95964.89;;;8.18;100.00
77881;BME280;67077;50.298;18.996;2024-02-23T02:35:30;95970.71;;;8.19;100.00
77881;BME280;67077;50.298;18.996;2024-02-23T02:37:58;95973.41;;;8.20;100.00
77881;BME280;67077;50.298;18.996;2024-02-23T02:40:26;95976.10;;;8.20;100.00
77881;BME280;67077;50.298;18.996;2024-02-23T02:42:54;95978.89;;;8.20;100.00
77881;BME280;67077;50.298;18.996;2024-02-23T02:45:22;95980.77;;;8.19;100.00
77881;BME280;67077;50.298;18.996;2024-02-23T02:47:50;95989.27;;;8.18;100.00
77881;BME280;67077;50.298;18.996;2024-02-23T02:50:18;95999.81;;;8.16;100.00
77881;BME280;67077;50.298;18.996;2024-02-23T02:52:46;96002.32;;;8.14;100.00
77881;BME280;67077;50.298;18.996;2024-02-23T02:55:14;95998.39;;;8.10;100.00
77881;BME280;67077;50.298;18.996;2024-02-23T02:57:41;95993.45;;;8.06;100.00
77881;BME280;67077;50.298;18.996;2024-02-23T03:00:11;95996.71;;;8.03;100.00
77881;BME280;67077;50.298;18.996;2024-02-23T03:02:39;95994.96;;;8.00;100.00
77881;BME280;67077;50.298;18.996;2024-02-23T03:05:07;95996.89;;;7.96;100.00
77881;BME280;67077;50.298;18.996;2024-02-23T03:07:35;96006.33;;;7.92;100.00
77881;BME280;67077;50.298;18.996;2024-02-23T03:10:04;96008.52;;;7.88;100.00
77881;BME280;67077;50.298;18.996;2024-02-23T03:12:32;96008.27;;;7.87;100.00
77881;BME280;67077;50.298;18.996;2024-02-23T03:15:00;96011.38;;;7.85;100.00
77881;BME280;67077;50.298;18.996;2024-02-23T03:17:29;96007.70;;;7.83;100.00
77881;BME280;67077;50.298;18.996;2024-02-23T03:19:57;96013.83;;;7.82;100.00
77881;BME280;67077;50.298;18.996;2024-02-23T03:22:25;96017.45;;;7.81;100.00
77881;BME280;67077;50.298;18.996;2024-02-23T03:24:53;96018.72;;;7.78;100.00
77881;BME280;67077;50.298;18.996;2024-02-23T03:27:28;96021.17;;;7.76;100.00
77881;BME280;67077;50.298;18.996;2024-02-23T03:29:57;96023.79;;;7.75;100.00
77881;BME280;67077;50.298;18.996;2024-02-23T03:32:24;96025.65;;;7.72;100.00
77881;BME280;67077;50.298;18.996;2024-02-23T03:34:52;96022.55;;;7.69;100.00
77881;BME280;67077;50.298;18.996;2024-02-23T03:37:20;96030.48;;;7.67;100.00
77881;BME280;67077;50.298;18.996;2024-02-23T03:39:48;96026.73;;;7.65;100.00
77881;BME280;67077;50.298;18.996;2024-02-23T03:42:16;96031.38;;;7.62;100.00
77881;BME280;67077;50.298;18.996;2024-02-23T03:44:44;96027.69;;;7.59;100.00
77881;BME280;67077;50.298;18.996;2024-02-23T03:47:12;96026.38;;;7.56;100.00
77881;BME280;67077;50.298;18.996;2024-02-23T03:49:40;96023.77;;;7.53;100.00
77881;BME280;67077;50.298;18.996;2024-02-23T03:52:08;96028.35;;;7.51;100.00
77881;BME280;67077;50.298;18.996;2024-02-23T03:54:35;96033.02;;;7.47;100.00
77881;BME280;67077;50.298;18.996;2024-02-23T03:57:03;96028.58;;;7.43;100.00
77881;BME280;67077;50.298;18.996;2024-02-23T03:59:36;96030.48;;;7.41;100.00
77881;BME280;67077;50.298;18.996;2024-02-23T04:02:04;96036.48;;;7.38;100.00
77881;BME280;67077;50.298;18.996;2024-02-23T04:04:33;96037.48;;;7.36;100.00
77881;BME280;67077;50.298;18.996;2024-02-23T04:07:00;96036.96;;;7.35;100.00
77881;BME280;67077;50.298;18.996;2024-02-23T04:09:28;96035.70;;;7.34;100.00
77881;BME280;67077;50.298;18.996;2024-02-23T04:11:57;96040.99;;;7.32;100.00
77881;BME280;67077;50.298;18.996;2024-02-23T04:14:24;96044.20;;;7.31;100.00
77881;BME280;67077;50.298;18.996;2024-02-23T04:16:52;96044.68;;;7.31;100.00
77881;BME280;67077;50.298;18.996;2024-02-23T04:19:20;96049.93;;;7.29;100.00
77881;BME280;67077;50.298;18.996;2024-02-23T04:21:48;96053.26;;;7.29;100.00
77881;BME280;67077;50.298;18.996;2024-02-23T04:24:15;96054.92;;;7.28;100.00
77881;BME280;67077;50.298;18.996;2024-02-23T04:26:43;96052.86;;;7.27;100.00
77881;BME280;67077;50.298;18.996;2024-02-23T04:29:11;96052.09;;;7.26;100.00
77881;BME280;67077;50.298;18.996;2024-02-23T04:31:39;96049.52;;;7.25;100.00
77881;BME280;67077;50.298;18.996;2024-02-23T04:34:07;96054.23;;;7.25;100.00
77881;BME280;67077;50.298;18.996;2024-02-23T04:36:34;96060.42;;;7.25;100.00
77881;BME280;67077;50.298;18.996;2024-02-23T04:39:02;96063.05;;;7.26;100.00
77881;BME280;67077;50.298;18.996;2024-02-23T04:41:30;96064.72;;;7.25;100.00
77881;BME280;67077;50.298;18.996;2024-02-23T04:43:58;96071.05;;;7.25;100.00
77881;BME280;67077;50.298;18.996;2024-02-23T04:46:27;96072.39;;;7.25;100.00
77881;BME280;67077;50.298;18.996;2024-02-23T04:48:55;96076.48;;;7.25;100.00
77881;BME280;67077;50.298;18.996;2024-02-23T04:51:23;96077.07;;;7.24;100.00
77881;BME280;67077;50.298;18.996;2024-02-23T04:53:51;96076.37;;;7.24;100.00
77881;BME280;67077;50.298;18.996;2024-02-23T04:56:19;96073.83;;;7.23;100.00
77881;BME280;67077;50.298;18.996;2024-02-23T04:58:48;96077.84;;;7.22;100.00
77881;BME280;67077;50.298;18.996;2024-02-23T05:01:15;96077.73;;;7.19;100.00
77881;BME280;67077;50.298;18.996;2024-02-23T05:03:43;96082.42;;;7.16;100.00
77881;BME280;67077;50.298;18.996;2024-02-23T05:06:11;96087.50;;;7.14;100.00
77881;BME280;67077;50.298;18.996;2024-02-23T05:08:40;96092.46;;;7.11;100.00
77881;BME280;67077;50.298;18.996;2024-02-23T05:11:08;96097.43;;;7.09;100.00
77881;BME280;67077;50.298;18.996;2024-02-23T05:13:36;96103.48;;;7.07;100.00
77881;BME280;67077;50.298;18.996;2024-02-23T05:16:05;96107.89;;;7.05;100.00
77881;BME280;67077;50.298;18.996;2024-02-23T05:18:33;96107.43;;;7.00;100.00
77881;BME280;67077;50.298;18.996;2024-02-23T05:21:02;96110.98;;;6.96;100.00
77881;BME280;67077;50.298;18.996;2024-02-23T05:23:29;96110.77;;;6.93;100.00
77881;BME280;67077;50.298;18.996;2024-02-23T05:25:57;96117.35;;;6.91;100.00
77881;BME280;67077;50.298;18.996;2024-02-23T05:28:25;96117.21;;;6.89;100.00
77881;BME280;67077;50.298;18.996;2024-02-23T05:30:54;96119.10;;;6.88;100.00
77881;BME280;67077;50.298;18.996;2024-02-23T05:33:22;96118.58;;;6.85;100.00
77881;BME280;67077;50.298;18.996;2024-02-23T05:35:51;96119.60;;;6.81;100.00
77881;BME280;67077;50.298;18.996;2024-02-23T05:38:19;96123.46;;;6.77;100.00
77881;BME280;67077;50.298;18.996;2024-02-23T05:40:47;96123.08;;;6.77;100.00
77881;BME280;67077;50.298;18.996;2024-02-23T05:43:16;96125.51;;;6.74;100.00
77881;BME280;67077;50.298;18.996;2024-02-23T05:45:43;96130.71;;;6.72;100.00
77881;BME280;67077;50.298;18.996;2024-02-23T05:48:12;96134.04;;;6.72;100.00
77881;BME280;67077;50.298;18.996;2024-02-23T05:50:40;96139.17;;;6.71;100.00
77881;BME280;67077;50.298;18.996;2024-02-23T05:53:08;96145.00;;;6.69;100.00
77881;BME280;67077;50.298;18.996;2024-02-23T05:55:36;96151.98;;;6.67;100.00
77881;BME280;67077;50.298;18.996;2024-02-23T05:58:03;96157.17;;;6.65;100.00
77881;BME280;67077;50.298;18.996;2024-02-23T06:00:32;96159.58;;;6.64;100.00
77881;BME280;67077;50.298;18.996;2024-02-23T06:03:00;96165.27;;;6.64;100.00
77881;BME280;67077;50.298;18.996;2024-02-23T06:05:28;96170.69;;;6.64;100.00
77881;BME280;67077;50.298;18.996;2024-02-23T06:07:56;96178.77;;;6.65;100.00
77881;BME280;67077;50.298;18.996;2024-02-23T06:10:24;96182.65;;;6.67;100.00
77881;BME280;67077;50.298;18.996;2024-02-23T06:12:52;96186.13;;;6.66;100.00
77881;BME280;67077;50.298;18.996;2024-02-23T06:15:21;96188.38;;;6.65;100.00
77881;BME280;67077;50.298;18.996;2024-02-23T06:17:49;96187.77;;;6.65;100.00
77881;BME280;67077;50.298;18.996;2024-02-23T06:20:16;96190.82;;;6.64;100.00
77881;BME280;67077;50.298;18.996;2024-02-23T06:22:44;96193.17;;;6.63;100.00
77881;BME280;67077;50.298;18.996;2024-02-23T06:25:12;96192.80;;;6.64;100.00
77881;BME280;67077;50.298;18.996;2024-02-23T06:27:40;96192.58;;;6.63;100.00
77881;BME280;67077;50.298;18.996;2024-02-23T06:30:09;96196.25;;;6.61;100.00
77881;BME280;67077;50.298;18.996;2024-02-23T06:32:40;96201.83;;;6.61;100.00
77881;BME280;67077;50.298;18.996;2024-02-23T06:35:08;96209.30;;;6.61;100.00
77881;BME280;67077;50.298;18.996;2024-02-23T06:37:39;96220.06;;;6.62;100.00
77881;BME280;67077;50.298;18.996;2024-02-23T06:40:07;96230.84;;;6.62;100.00
77881;BME280;67077;50.298;18.996;2024-02-23T06:42:35;96237.30;;;6.63;100.00
77881;BME280;67077;50.298;18.996;2024-02-23T06:45:04;96243.92;;;6.64;100.00
77881;BME280;67077;50.298;18.996;2024-02-23T06:47:31;96255.61;;;6.66;100.00
77881;BME280;67077;50.298;18.996;2024-02-23T06:50:00;96254.66;;;6.67;100.00
77881;BME280;67077;50.298;18.996;2024-02-23T06:52:28;96256.08;;;6.68;100.00
77881;BME280;67077;50.298;18.996;2024-02-23T06:54:56;96262.94;;;6.70;100.00
77881;BME280;67077;50.298;18.996;2024-02-23T06:57:24;96264.47;;;6.72;100.00
77881;BME280;67077;50.298;18.996;2024-02-23T06:59:53;96261.48;;;6.73;100.00
77881;BME280;67077;50.298;18.996;2024-02-23T07:02:21;96264.42;;;6.72;100.00
77881;BME280;67077;50.298;18.996;2024-02-23T07:04:49;96261.65;;;6.71;100.00
77881;BME280;67077;50.298;18.996;2024-02-23T07:07:16;96265.80;;;6.72;100.00
77881;BME280;67077;50.298;18.996;2024-02-23T07:09:44;96267.66;;;6.71;100.00
77881;BME280;67077;50.298;18.996;2024-02-23T07:12:12;96266.15;;;6.70;100.00
77881;BME280;67077;50.298;18.996;2024-02-23T07:14:41;96264.77;;;6.71;100.00
77881;BME280;67077;50.298;18.996;2024-02-23T07:17:09;96268.61;;;6.73;100.00
77881;BME280;67077;50.298;18.996;2024-02-23T07:19:37;96271.07;;;6.74;100.00
77881;BME280;67077;50.298;18.996;2024-02-23T07:22:05;96266.59;;;6.76;100.00
77881;BME280;67077;50.298;18.996;2024-02-23T07:24:33;96267.05;;;6.76;100.00
77881;BME280;67077;50.298;18.996;2024-02-23T07:27:01;96272.38;;;6.78;100.00
77881;BME280;67077;50.298;18.996;2024-02-23T07:29:29;96278.64;;;6.78;100.00
77881;BME280;67077;50.298;18.996;2024-02-23T07:32:00;96281.52;;;6.81;100.00
77881;BME280;67077;50.298;18.996;2024-02-23T07:34:32;96281.17;;;6.83;100.00
77881;BME280;67077;50.298;18.996;2024-02-23T07:37:00;96282.17;;;6.85;100.00
77881;BME280;67077;50.298;18.996;2024-02-23T07:39:27;96287.03;;;6.91;100.00
77881;BME280;67077;50.298;18.996;2024-02-23T07:41:55;96284.44;;;6.93;100.00
77881;BME280;67077;50.298;18.996;2024-02-23T07:44:23;96289.77;;;6.94;100.00
77881;BME280;67077;50.298;18.996;2024-02-23T07:46:53;96291.80;;;6.96;100.00
77881;BME280;67077;50.298;18.996;2024-02-23T07:49:22;96286.10;;;6.96;100.00
77881;BME280;67077;50.298;18.996;2024-02-23T07:51:50;96294.68;;;6.98;100.00
77881;BME280;67077;50.298;18.996;2024-02-23T07:54:18;96295.70;;;7.01;100.00
77881;BME280;67077;50.298;18.996;2024-02-23T07:56:45;96296.08;;;7.04;100.00
77881;BME280;67077;50.298;18.996;2024-02-23T07:59:13;96298.87;;;7.06;100.00
77881;BME280;67077;50.298;18.996;2024-02-23T08:01:41;96296.36;;;7.07;100.00
77881;BME280;67077;50.298;18.996;2024-02-23T08:04:11;96295.79;;;7.08;100.00
77881;BME280;67077;50.298;18.996;2024-02-23T08:06:41;96298.66;;;7.09;100.00
77881;BME280;67077;50.298;18.996;2024-02-23T08:09:11;96295.33;;;7.09;100.00
77881;BME280;67077;50.298;18.996;2024-02-23T08:11:41;96295.77;;;7.11;100.00
77881;BME280;67077;50.298;18.996;2024-02-23T08:14:10;96301.12;;;7.12;100.00
77881;BME280;67077;50.298;18.996;2024-02-23T08:16:39;96302.35;;;7.15;100.00
77881;BME280;67077;50.298;18.996;2024-02-23T08:19:06;96307.69;;;7.19;100.00
77881;BME280;67077;50.298;18.996;2024-02-23T08:21:34;96308.04;;;7.23;100.00
77881;BME280;67077;50.298;18.996;2024-02-23T08:24:02;96312.23;;;7.27;100.00
77881;BME280;67077;50.298;18.996;2024-02-23T08:26:30;96312.42;;;7.31;100.00
77881;BME280;67077;50.298;18.996;2024-02-23T08:28:58;96314.55;;;7.34;100.00
77881;BME280;67077;50.298;18.996;2024-02-23T08:31:26;96314.94;;;7.35;100.00
77881;BME280;67077;50.298;18.996;2024-02-23T08:33:54;96323.27;;;7.36;100.00
77881;BME280;67077;50.298;18.996;2024-02-23T08:36:22;96319.90;;;7.37;100.00
77881;BME280;67077;50.298;18.996;2024-02-23T08:38:50;96313.69;;;7.36;100.00
77881;BME280;67077;50.298;18.996;2024-02-23T08:41:18;96315.46;;;7.36;100.00
77881;BME280;67077;50.298;18.996;2024-02-23T08:43:46;96316.36;;;7.37;100.00
77881;BME280;67077;50.298;18.996;2024-02-23T08:46:13;96320.03;;;7.39;100.00
77881;BME280;67077;50.298;18.996;2024-02-23T08:48:41;96318.80;;;7.39;100.00
77881;BME280;67077;50.298;18.996;2024-02-23T08:51:09;96322.40;;;7.38;100.00
77881;BME280;67077;50.298;18.996;2024-02-23T08:53:37;96323.75;;;7.39;100.00
77881;BME280;67077;50.298;18.996;2024-02-23T08:56:06;96324.09;;;7.40;100.00
77881;BME280;67077;50.298;18.996;2024-02-23T08:58:35;96324.74;;;7.40;100.00
77881;BME280;67077;50.298;18.996;2024-02-23T09:01:03;96327.57;;;7.43;100.00
77881;BME280;67077;50.298;18.996;2024-02-23T09:03:32;96325.67;;;7.45;100.00
77881;BME280;67077;50.298;18.996;2024-02-23T09:06:00;96327.30;;;7.46;100.00
77881;BME280;67077;50.298;18.996;2024-02-23T09:08:34;96329.48;;;7.48;100.00
77881;BME280;67077;50.298;18.996;2024-02-23T09:11:02;96331.46;;;7.50;100.00
77881;BME280;67077;50.298;18.996;2024-02-23T09:13:30;96325.98;;;7.53;100.00
77881;BME280;67077;50.298;18.996;2024-02-23T09:15:58;96330.10;;;7.54;100.00
77881;BME280;67077;50.298;18.996;2024-02-23T09:18:26;96336.52;;;7.57;100.00
77881;BME280;67077;50.298;18.996;2024-02-23T09:20:54;96331.88;;;7.59;100.00
77881;BME280;67077;50.298;18.996;2024-02-23T09:23:22;96335.60;;;7.63;100.00
77881;BME280;67077;50.298;18.996;2024-02-23T09:25:50;96347.07;;;7.69;100.00
77881;BME280;67077;50.298;18.996;2024-02-23T09:28:18;96360.33;;;7.74;100.00
77881;BME280;67077;50.298;18.996;2024-02-23T09:30:46;96368.71;;;7.81;100.00
77881;BME280;67077;50.298;18.996;2024-02-23T09:33:17;96369.85;;;7.87;100.00
77881;BME280;67077;50.298;18.996;2024-02-23T09:35:44;96371.56;;;7.93;100.00
77881;BME280;67077;50.298;18.996;2024-02-23T09:38:12;96372.12;;;8.01;100.00
77881;BME280;67077;50.298;18.996;2024-02-23T09:40:40;96373.14;;;8.11;100.00
77881;BME280;67077;50.298;18.996;2024-02-23T09:43:08;96374.45;;;8.19;100.00
77881;BME280;67077;50.298;18.996;2024-02-23T09:45:38;96383.00;;;8.26;100.00
77881;BME280;67077;50.298;18.996;2024-02-23T09:48:07;96386.52;;;8.33;100.00
77881;BME280;67077;50.298;18.996;2024-02-23T09:50:35;96392.81;;;8.40;100.00
77881;BME280;67077;50.298;18.996;2024-02-23T09:53:05;96393.63;;;8.46;100.00
77881;BME280;67077;50.298;18.996;2024-02-23T09:55:36;96398.05;;;8.51;100.00
77881;BME280;67077;50.298;18.996;2024-02-23T09:58:06;96400.85;;;8.55;100.00
77881;BME280;67077;50.298;18.996;2024-02-23T10:00:36;96398.98;;;8.62;100.00
77881;BME280;67077;50.298;18.996;2024-02-23T10:03:06;96394.91;;;8.69;100.00
77881;BME280;67077;50.298;18.996;2024-02-23T10:05:34;96396.40;;;8.72;100.00
77881;BME280;67077;50.298;18.996;2024-02-23T10:08:02;96401.21;;;8.75;100.00
77881;BME280;67077;50.298;18.996;2024-02-23T10:10:34;96405.95;;;8.80;100.00
77881;BME280;67077;50.298;18.996;2024-02-23T10:13:02;96407.88;;;8.87;100.00
77881;BME280;67077;50.298;18.996;2024-02-23T10:15:33;96406.59;;;8.91;100.00
77881;BME280;67077;50.298;18.996;2024-02-23T10:18:01;96408.52;;;8.94;100.00
77881;BME280;67077;50.298;18.996;2024-02-23T10:20:29;96405.80;;;8.92;100.00
77881;BME280;67077;50.298;18.996;2024-02-23T10:22:57;96398.11;;;8.89;100.00
77881;BME280;67077;50.298;18.996;2024-02-23T10:25:25;96394.41;;;8.84;100.00
77881;BME280;67077;50.298;18.996;2024-02-23T10:27:52;96394.56;;;8.83;100.00
77881;BME280;67077;50.298;18.996;2024-02-23T10:30:20;96393.48;;;8.83;100.00
77881;BME280;67077;50.298;18.996;2024-02-23T10:32:49;96398.06;;;8.82;100.00
77881;BME280;67077;50.298;18.996;2024-02-23T10:35:21;96404.12;;;8.85;100.00
77881;BME280;67077;50.298;18.996;2024-02-23T10:37:50;96400.50;;;8.87;100.00
77881;BME280;67077;50.298;18.996;2024-02-23T10:40:20;96394.54;;;8.92;100.00
77881;BME280;67077;50.298;18.996;2024-02-23T10:42:51;96387.95;;;8.96;100.00
77881;BME280;67077;50.298;18.996;2024-02-23T10:45:21;96392.11;;;9.02;100.00
77881;BME280;67077;50.298;18.996;2024-02-23T10:47:50;96397.92;;;9.09;100.00
77881;BME280;67077;50.298;18.996;2024-02-23T10:50:20;96400.15;;;9.15;100.00
77881;BME280;67077;50.298;18.996;2024-02-23T10:52:50;96410.89;;;9.17;100.00
77881;BME280;67077;50.298;18.996;2024-02-23T10:55:18;96410.93;;;9.16;100.00
77881;BME280;67077;50.298;18.996;2024-02-23T10:57:51;96422.50;;;9.14;100.00
77881;BME280;67077;50.298;18.996;2024-02-23T11:00:21;96430.95;;;9.12;100.00
77881;BME280;67077;50.298;18.996;2024-02-23T11:02:53;96432.22;;;9.10;100.00
77881;BME280;67077;50.298;18.996;2024-02-23T11:05:22;96438.61;;;9.04;100.00
77881;BME280;67077;50.298;18.996;2024-02-23T11:07:56;96438.73;;;8.97;100.00
77881;BME280;67077;50.298;18.996;2024-02-23T11:10:23;96442.48;;;8.91;100.00
77881;BME280;67077;50.298;18.996;2024-02-23T11:12:58;96437.66;;;8.83;100.00
77881;BME280;67077;50.298;18.996;2024-02-23T11:15:29;96434.31;;;8.74;100.00
77881;BME280;67077;50.298;18.996;2024-02-23T11:17:57;96433.58;;;8.68;100.00
77881;BME280;67077;50.298;18.996;2024-02-23T11:20:34;96432.41;;;8.65;100.00
77881;BME280;67077;50.298;18.996;2024-02-23T11:23:13;96437.56;;;8.60;100.00
77881;BME280;67077;50.298;18.996;2024-02-23T11:25:41;96444.20;;;8.55;100.00
77881;BME280;67077;50.298;18.996;2024-02-23T11:28:09;96452.17;;;8.51;100.00
77881;BME280;67077;50.298;18.996;2024-02-23T11:30:37;96460.80;;;8.51;100.00
77881;BME280;67077;50.298;18.996;2024-02-23T11:33:07;96464.63;;;8.51;100.00
77881;BME280;67077;50.298;18.996;2024-02-23T11:35:46;96461.19;;;8.52;100.00
77881;BME280;67077;50.298;18.996;2024-02-23T11:38:17;96461.64;;;8.54;100.00
77881;BME280;67077;50.298;18.996;2024-02-23T11:40:50;96463.34;;;8.56;100.00
77881;BME280;67077;50.298;18.996;2024-02-23T11:43:21;96462.14;;;8.57;100.00
77881;BME280;67077;50.298;18.996;2024-02-23T11:45:50;96458.77;;;8.63;100.00
77881;BME280;67077;50.298;18.996;2024-02-23T11:48:21;96457.13;;;8.69;100.00
77881;BME280;67077;50.298;18.996;2024-02-23T11:50:50;96468.66;;;8.75;100.00
77881;BME280;67077;50.298;18.996;2024-02-23T11:53:20;96469.64;;;8.80;100.00
77881;BME280;67077;50.298;18.996;2024-02-23T11:55:49;96474.64;;;8.83;100.00
77881;BME280;67077;50.298;18.996;2024-02-23T11:58:17;96472.95;;;8.87;100.00
77881;BME280;67077;50.298;18.996;2024-02-23T12:00:45;96480.80;;;8.91;100.00
77881;BME280;67077;50.298;18.996;2024-02-23T12:03:13;96484.27;;;8.93;100.00
77881;BME280;67077;50.298;18.996;2024-02-23T12:05:41;96496.69;;;8.95;100.00
77881;BME280;67077;50.298;18.996;2024-02-23T12:08:09;96504.04;;;8.91;100.00
77881;BME280;67077;50.298;18.996;2024-02-23T12:10:37;96511.83;;;8.90;100.00
77881;BME280;67077;50.298;18.996;2024-02-23T12:13:05;96510.32;;;8.89;100.00
77881;BME280;67077;50.298;18.996;2024-02-23T12:15:33;96508.89;;;8.88;100.00
77881;BME280;67077;50.298;18.996;2024-02-23T12:18:03;96502.30;;;8.88;100.00
77881;BME280;67077;50.298;18.996;2024-02-23T12:20:34;96498.01;;;8.86;100.00
77881;BME280;67077;50.298;18.996;2024-02-23T12:23:03;96490.67;;;8.86;100.00
77881;BME280;67077;50.298;18.996;2024-02-23T12:25:30;96480.92;;;8.85;100.00
77881;BME280;67077;50.298;18.996;2024-02-23T12:27:59;96476.32;;;8.87;100.00
77881;BME280;67077;50.298;18.996;2024-02-23T12:30:28;96484.84;;;8.88;100.00
77881;BME280;67077;50.298;18.996;2024-02-23T12:33:06;96485.64;;;8.91;100.00
77881;BME280;67077;50.298;18.996;2024-02-23T12:35:35;96487.98;;;8.93;100.00
77881;BME280;67077;50.298;18.996;2024-02-23T12:38:05;96488.13;;;8.95;100.00
77881;BME280;67077;50.298;18.996;2024-02-23T12:40:34;96483.84;;;8.93;100.00
77881;BME280;67077;50.298;18.996;2024-02-23T12:43:01;96479.34;;;8.90;100.00
77881;BME280;67077;50.298;18.996;2024-02-23T12:45:29;96482.25;;;8.91;100.00
77881;BME280;67077;50.298;18.996;2024-02-23T12:47:57;96485.59;;;8.94;100.00
77881;BME280;67077;50.298;18.996;2024-02-23T12:50:25;96489.87;;;8.97;100.00
77881;BME280;67077;50.298;18.996;2024-02-23T12:52:53;96491.02;;;8.97;100.00
77881;BME280;67077;50.298;18.996;2024-02-23T12:55:21;96491.19;;;8.98;100.00
77881;BME280;67077;50.298;18.996;2024-02-23T12:57:49;96495.23;;;9.03;100.00